createdAt,value
2023-04-19T00:01:28.480Z,7.00
2023-04-19T00:03:52.468Z,7.10
2023-04-19T00:06:17.718Z,7.10
2023-04-19T00:08:41.311Z,7.10
2023-04-19T00:11:05.033Z,7.00
2023-04-19T00:13:28.534Z,7.10
2023-04-19T00:15:52.127Z,7.10
2023-04-19T00:18:15.731Z,7.10
2023-04-19T00:20:40.428Z,7.10
2023-04-19T00:23:05.704Z,7.10
2023-04-19T00:25:31.046Z,7.10
2023-04-19T00:27:54.550Z,7.10
2023-04-19T00:30:18.278Z,7.10
2023-04-19T00:32:41.849Z,7.10
2023-04-19T00:35:05.975Z,7.10
2023-04-19T00:37:29.627Z,7.10
2023-04-19T00:39:54.647Z,7.00
2023-04-19T00:42:18.202Z,7.00
2023-04-19T00:44:44.128Z,6.90
2023-04-19T00:47:07.916Z,6.90
2023-04-19T00:49:31.883Z,6.90
2023-04-19T00:51:55.910Z,6.80
2023-04-19T00:54:20.896Z,6.80
2023-04-19T00:56:47.882Z,6.70
2023-04-19T00:59:16.237Z,6.70
2023-04-19T01:01:40.424Z,6.70
2023-04-19T01:04:04.547Z,6.60
2023-04-19T01:06:29.966Z,6.60
2023-04-19T01:08:53.927Z,6.50
2023-04-19T01:11:19.289Z,6.50
2023-04-19T01:13:44.291Z,6.50
2023-04-19T01:16:08.954Z,6.40
2023-04-19T01:18:37.501Z,6.40
2023-04-19T01:21:01.730Z,6.30
2023-04-19T01:23:26.715Z,6.30
2023-04-19T01:25:50.265Z,6.20
2023-04-19T01:28:13.970Z,6.20
2023-04-19T01:30:37.847Z,6.10
2023-04-19T01:33:01.538Z,6.10
2023-04-19T01:35:26.526Z,6.10
2023-04-19T01:37:50.692Z,6.00
2023-04-19T01:40:17.203Z,6.00
2023-04-19T01:42:40.857Z,5.90
2023-04-19T01:45:04.899Z,5.90
2023-04-19T01:47:29.059Z,5.80
2023-04-19T01:49:52.595Z,5.80
2023-04-19T01:52:16.187Z,5.80
2023-04-19T01:54:39.720Z,5.70
2023-04-19T01:57:04.730Z,5.70
2023-04-19T01:59:28.351Z,5.70
2023-04-19T02:01:52.352Z,5.60
2023-04-19T02:04:16.311Z,5.60
2023-04-19T02:06:40.289Z,5.60
2023-04-19T02:09:04.387Z,5.50
2023-04-19T02:11:28.063Z,5.50
2023-04-19T02:13:53.160Z,5.40
2023-04-19T02:16:16.801Z,5.40
2023-04-19T02:18:40.719Z,5.30
2023-04-19T02:21:04.392Z,5.40
2023-04-19T02:23:27.993Z,5.30
2023-04-19T02:25:52.080Z,5.30
2023-04-19T02:28:15.601Z,5.20
2023-04-19T02:30:40.592Z,5.20
2023-04-19T02:33:04.162Z,5.20
2023-04-19T02:35:28.496Z,5.20
2023-04-19T02:37:55.041Z,5.10
2023-04-19T02:40:18.786Z,5.10
2023-04-19T02:42:42.309Z,5.10
2023-04-19T02:45:07.057Z,5.00
2023-04-19T02:47:32.021Z,5.00
2023-04-19T02:49:55.757Z,5.00
2023-04-19T02:52:19.374Z,4.90
2023-04-19T02:54:43.037Z,4.90
2023-04-19T02:57:06.731Z,4.90
2023-04-19T02:59:30.627Z,4.80
2023-04-19T03:01:56.844Z,4.80
2023-04-19T03:04:23.276Z,4.80
2023-04-19T03:06:46.885Z,4.70
2023-04-19T03:09:10.741Z,4.70
2023-04-19T03:11:34.342Z,4.70
2023-04-19T03:13:57.910Z,4.60
2023-04-19T03:16:21.581Z,4.60
2023-04-19T03:18:47.966Z,4.50
2023-04-19T03:21:14.698Z,4.50
2023-04-19T03:23:50.271Z,4.50
2023-04-19T03:26:14.267Z,4.50
2023-04-19T03:28:41.630Z,4.40
2023-04-19T03:31:22.316Z,4.40
2023-04-19T03:33:47.771Z,4.40
2023-04-19T03:36:11.650Z,4.30
2023-04-19T03:38:40.867Z,4.30
2023-04-19T03:41:20.426Z,4.30
2023-04-19T03:43:46.516Z,4.30
2023-04-19T03:46:10.279Z,4.20
2023-04-19T03:48:35.729Z,4.20
2023-04-19T03:50:59.415Z,4.20
2023-04-19T03:53:23.088Z,4.10
2023-04-19T03:55:47.986Z,4.10
2023-04-19T03:58:11.726Z,4.10
2023-04-19T04:00:44.007Z,4.10
2023-04-19T04:03:07.720Z,4.10
2023-04-19T04:05:32.010Z,4.10
2023-04-19T04:07:57.835Z,4.10
2023-04-19T04:10:22.351Z,4.10
2023-04-19T04:12:47.343Z,4.10
2023-04-19T04:15:17.348Z,4.10
2023-04-19T04:17:45.246Z,4.10
2023-04-19T04:20:11.923Z,4.10
2023-04-19T04:22:35.669Z,4.20
2023-04-19T04:25:01.416Z,4.20
2023-04-19T04:27:31.321Z,4.20
2023-04-19T04:29:56.806Z,4.20
2023-04-19T04:32:23.565Z,4.20
2023-04-19T04:34:51.835Z,4.20
2023-04-19T04:37:24.408Z,4.20
2023-04-19T04:39:49.155Z,4.20
2023-04-19T04:42:13.577Z,4.20
2023-04-19T04:44:37.570Z,4.20
2023-04-19T04:47:03.243Z,4.20
2023-04-19T04:49:32.057Z,4.30
2023-04-19T04:51:55.980Z,4.30
2023-04-19T04:54:20.164Z,4.30
2023-04-19T04:56:44.649Z,4.40
2023-04-19T04:59:08.963Z,4.40
2023-04-19T05:01:36.232Z,4.40
2023-04-19T05:04:02.581Z,4.40
2023-04-19T05:06:26.665Z,4.50
2023-04-19T05:08:50.657Z,4.50
2023-04-19T05:11:22.449Z,4.60
2023-04-19T05:13:46.125Z,4.60
2023-04-19T05:16:10.564Z,4.70
2023-04-19T05:18:36.134Z,4.70
2023-04-19T05:21:01.307Z,4.80
2023-04-19T05:23:28.460Z,4.80
2023-04-19T05:25:52.131Z,4.90
2023-04-19T05:28:17.509Z,5.00
2023-04-19T05:30:54.016Z,5.00
2023-04-19T05:33:20.393Z,5.10
2023-04-19T05:35:45.402Z,5.00
2023-04-19T05:38:10.352Z,5.20
2023-04-19T05:40:35.539Z,5.30
2023-04-19T05:42:59.198Z,5.30
2023-04-19T05:45:23.756Z,5.40
2023-04-19T05:47:47.642Z,5.50
2023-04-19T05:50:21.071Z,5.60
2023-04-19T05:53:00.583Z,5.70
2023-04-19T05:55:25.820Z,5.80
2023-04-19T05:57:49.378Z,5.80
2023-04-19T06:00:14.394Z,6.00
2023-04-19T06:02:44.690Z,6.10
2023-04-19T06:05:11.761Z,6.30
2023-04-19T06:10:01.731Z,6.70
2023-04-19T06:12:26.981Z,7.00
2023-04-19T06:14:51.214Z,7.30
2023-04-19T06:17:16.544Z,7.80
2023-04-19T06:19:40.116Z,8.20
2023-04-19T06:22:03.732Z,8.60
2023-04-19T06:24:27.608Z,9.00
2023-04-19T06:26:51.158Z,9.90
2023-04-19T06:29:16.174Z,10.00
2023-04-19T06:31:39.965Z,10.60
2023-04-19T06:34:03.743Z,10.90
2023-04-19T06:36:27.477Z,11.10
2023-04-19T06:38:51.164Z,11.60
2023-04-19T06:41:14.869Z,11.80
2023-04-19T06:43:40.729Z,12.30
2023-04-19T06:46:06.390Z,12.70
2023-04-19T06:48:30.231Z,13.00
2023-04-19T06:50:53.777Z,12.90
2023-04-19T06:53:17.409Z,12.80
2023-04-19T06:55:40.961Z,13.20
2023-04-19T06:58:04.623Z,13.40
2023-04-19T07:00:29.514Z,13.70
2023-04-19T07:02:54.693Z,13.50
2023-04-19T07:05:18.362Z,13.40
2023-04-19T07:07:42.301Z,13.60
2023-04-19T07:10:06.784Z,13.80
2023-04-19T07:12:30.418Z,13.60
2023-04-19T07:14:57.239Z,13.80
2023-04-19T07:17:21.028Z,13.70
2023-04-19T07:19:49.643Z,14.20
2023-04-19T07:22:14.790Z,13.80
2023-04-19T07:24:40.332Z,13.60
2023-04-19T07:27:03.979Z,13.30
2023-04-19T07:29:27.532Z,12.90
2023-04-19T07:31:51.357Z,13.30
2023-04-19T07:34:15.203Z,13.60
2023-04-19T07:36:40.519Z,13.10
2023-04-19T07:39:04.825Z,13.30
2023-04-19T07:41:28.605Z,12.80
2023-04-19T07:43:52.147Z,12.50
2023-04-19T07:46:17.151Z,12.40
2023-04-19T07:48:40.940Z,12.90
2023-04-19T07:51:11.429Z,13.10
2023-04-19T07:53:36.469Z,13.20
2023-04-19T07:56:00.009Z,13.10
2023-04-19T07:58:23.649Z,12.80
2023-04-19T08:00:47.374Z,12.60
2023-04-19T08:03:11.556Z,13.00
2023-04-19T08:05:36.246Z,12.80
2023-04-19T08:07:59.903Z,12.70
2023-04-19T08:10:25.899Z,12.70
2023-04-19T08:13:04.344Z,12.50
2023-04-19T08:16:15.220Z,12.60
2023-04-19T08:18:12.979Z,12.50
2023-04-19T08:20:36.891Z,12.50
2023-04-19T08:23:10.508Z,12.60
2023-04-19T08:25:39.765Z,12.80
2023-04-19T08:28:03.374Z,12.60
2023-04-19T08:30:27.028Z,12.50
2023-04-19T08:32:51.069Z,12.70
2023-04-19T08:35:15.704Z,12.60
2023-04-19T08:37:39.376Z,12.60
2023-04-19T08:40:03.911Z,12.50
2023-04-19T08:42:36.561Z,12.40
2023-04-19T08:47:34.779Z,12.60
2023-04-19T08:50:14.095Z,12.70
2023-04-19T08:52:54.811Z,13.00
2023-04-19T08:55:21.704Z,12.90
2023-04-19T08:57:46.700Z,13.20
2023-04-19T09:00:11.516Z,13.20
2023-04-19T09:02:48.743Z,13.00
2023-04-19T09:05:13.892Z,12.90
2023-04-19T09:07:37.582Z,12.90
2023-04-19T09:10:08.875Z,12.70
2023-04-19T09:12:33.060Z,12.50
2023-04-19T09:15:01.831Z,12.40
2023-04-19T09:17:26.135Z,12.40
2023-04-19T09:19:50.664Z,12.70
2023-04-19T09:22:15.149Z,13.10
2023-04-19T09:27:10.538Z,13.40
2023-04-19T09:29:34.163Z,13.50
2023-04-19T09:32:02.254Z,13.40
2023-04-19T09:34:28.375Z,13.50
2023-04-19T09:37:00.717Z,13.40
2023-04-19T09:39:33.984Z,13.00
2023-04-19T09:41:58.361Z,13.20
2023-04-19T09:46:53.295Z,13.30
2023-04-19T09:49:33.767Z,13.50
2023-04-19T09:52:06.663Z,13.90
2023-04-19T09:54:32.474Z,14.00
2023-04-19T09:56:57.950Z,13.70
2023-04-19T09:59:23.242Z,13.80
2023-04-19T10:01:49.036Z,13.90
2023-04-19T10:04:24.105Z,14.20
2023-04-19T10:09:24.159Z,14.90
2023-04-19T10:11:54.208Z,15.00
2023-04-19T10:14:24.557Z,15.10
2023-04-19T10:16:48.742Z,14.90
2023-04-19T10:19:16.247Z,14.90
2023-04-19T10:21:41.301Z,15.20
2023-04-19T10:24:07.667Z,15.40
2023-04-19T10:26:31.355Z,15.50
2023-04-19T10:28:57.410Z,15.40
2023-04-19T10:31:23.754Z,15.50
2023-04-19T10:33:49.337Z,15.50
2023-04-19T10:36:17.627Z,15.50
2023-04-19T10:38:44.428Z,15.50
2023-04-19T10:41:17.091Z,15.40
2023-04-19T10:43:42.658Z,15.60
2023-04-19T10:46:10.181Z,16.20
2023-04-19T10:48:38.735Z,15.90
2023-04-19T10:51:04.343Z,16.00
2023-04-19T10:53:52.224Z,15.90
2023-04-19T10:56:19.143Z,15.60
2023-04-19T10:59:21.412Z,15.60
2023-04-19T11:01:47.384Z,15.90
2023-04-19T11:04:13.009Z,16.30
2023-04-19T11:06:37.698Z,16.20
2023-04-19T11:09:03.052Z,16.00
2023-04-19T11:11:28.150Z,16.00
2023-04-19T11:13:51.758Z,15.90
2023-04-19T11:16:17.726Z,16.00
2023-04-19T11:18:42.524Z,16.20
2023-04-19T11:21:06.750Z,16.10
2023-04-19T11:23:30.353Z,15.80
2023-04-19T11:25:54.218Z,15.80
2023-04-19T11:28:19.376Z,15.90
2023-04-19T11:30:43.210Z,16.10
2023-04-19T11:33:06.903Z,16.30
2023-04-19T11:35:31.477Z,16.00
2023-04-19T11:37:56.312Z,16.10
2023-04-19T11:40:21.819Z,16.30
2023-04-19T11:42:45.731Z,16.10
2023-04-19T11:45:25.932Z,15.80
2023-04-19T11:47:53.248Z,15.80
2023-04-19T11:50:34.986Z,15.20
2023-04-19T11:52:58.936Z,14.90
2023-04-19T11:55:23.901Z,14.80
2023-04-19T11:57:50.050Z,14.70
2023-04-19T12:00:17.093Z,14.70
2023-04-19T12:02:43.851Z,14.60
2023-04-19T12:05:12.470Z,14.60
2023-04-19T12:07:36.724Z,14.80
2023-04-19T12:10:11.467Z,14.70
2023-04-19T12:12:35.172Z,14.70
2023-04-19T12:14:58.702Z,14.50
2023-04-19T12:17:23.775Z,14.40
2023-04-19T12:19:49.061Z,14.40
2023-04-19T12:22:14.867Z,14.30
2023-04-19T12:24:39.642Z,14.30
2023-04-19T12:27:03.883Z,14.20
2023-04-19T12:29:28.484Z,14.20
2023-04-19T12:31:52.152Z,14.30
2023-04-19T12:34:17.160Z,14.30
2023-04-19T12:36:41.062Z,14.10
2023-04-19T12:39:04.840Z,14.00
2023-04-19T12:41:30.884Z,13.90
2023-04-19T12:43:54.444Z,13.80
2023-04-19T12:46:18.294Z,13.60
2023-04-19T12:48:41.906Z,13.60
2023-04-19T12:51:07.308Z,13.50
2023-04-19T12:53:31.081Z,13.70
2023-04-19T12:55:54.812Z,14.10
2023-04-19T12:58:19.215Z,14.50
2023-04-19T13:00:42.893Z,14.50
2023-04-19T13:03:06.812Z,14.70
2023-04-19T13:05:30.678Z,15.10
2023-04-19T13:07:55.592Z,15.10
2023-04-19T13:10:19.419Z,15.20
2023-04-19T13:12:43.123Z,15.10
2023-04-19T13:15:08.369Z,15.00
2023-04-19T13:17:32.070Z,15.00
2023-04-19T13:19:56.667Z,15.00
2023-04-19T13:22:20.257Z,14.80
2023-04-19T13:24:45.277Z,14.80
2023-04-19T13:27:09.444Z,14.70
2023-04-19T13:29:33.192Z,14.70
2023-04-19T13:31:57.146Z,14.60
2023-04-19T13:34:21.138Z,14.60
2023-04-19T13:36:44.967Z,14.70
2023-04-19T13:39:08.889Z,14.90
2023-04-19T13:41:34.090Z,15.00
2023-04-19T13:43:57.719Z,15.00
2023-04-19T13:46:21.470Z,14.70
2023-04-19T13:48:45.133Z,14.60
2023-04-19T13:51:08.998Z,14.20
2023-04-19T13:53:32.688Z,14.10
2023-04-19T13:55:56.892Z,14.00
2023-04-19T13:58:21.924Z,13.90
2023-04-19T14:00:45.824Z,13.80
2023-04-19T14:03:09.784Z,13.70
2023-04-19T14:05:34.832Z,13.70
2023-04-19T14:07:59.191Z,13.50
2023-04-19T14:10:23.067Z,13.50
2023-04-19T14:12:47.946Z,13.50
2023-04-19T14:15:14.320Z,13.40
2023-04-19T14:17:38.665Z,13.50
2023-04-19T14:20:03.408Z,13.60
2023-04-19T14:22:28.673Z,13.60
2023-04-19T14:24:52.213Z,13.30
2023-04-19T14:27:15.822Z,13.50
2023-04-19T14:29:39.410Z,13.40
2023-04-19T14:32:20.777Z,13.40
2023-04-19T14:34:47.597Z,13.40
2023-04-19T14:37:11.171Z,13.30
2023-04-19T14:39:35.214Z,13.20
2023-04-19T14:41:58.875Z,13.00
2023-04-19T14:44:22.505Z,12.80
2023-04-19T14:46:46.532Z,12.70
2023-04-19T14:49:11.606Z,12.60
2023-04-19T14:51:35.464Z,12.50
2023-04-19T14:53:59.702Z,12.40
2023-04-19T14:56:23.487Z,12.20
2023-04-19T14:58:47.279Z,12.10
2023-04-19T15:01:14.577Z,11.80
2023-04-19T15:03:38.628Z,11.30
2023-04-19T15:06:05.285Z,11.10
2023-04-19T15:08:30.582Z,10.70
2023-04-19T15:10:54.572Z,10.70
2023-04-19T15:13:18.304Z,10.30
2023-04-19T15:15:42.178Z,9.70
2023-04-19T15:18:05.951Z,9.50
2023-04-19T15:20:29.891Z,9.30
2023-04-19T15:22:55.223Z,9.10
2023-04-19T15:25:19.746Z,8.80
2023-04-19T15:27:43.678Z,8.60
2023-04-19T15:30:09.079Z,8.60
2023-04-19T15:32:34.388Z,8.40
2023-04-19T15:34:58.349Z,8.50
2023-04-19T15:37:22.132Z,8.30
2023-04-19T15:39:49.543Z,8.20
2023-04-19T15:42:13.234Z,8.20
2023-04-19T15:44:36.842Z,8.10
2023-04-19T15:47:00.501Z,7.90
2023-04-19T15:49:24.203Z,7.90
2023-04-19T15:51:48.293Z,7.80
2023-04-19T15:54:15.295Z,7.80
2023-04-19T15:56:41.159Z,7.80
2023-04-19T15:59:05.388Z,7.70
2023-04-19T16:01:29.786Z,7.80
2023-04-19T16:03:54.601Z,7.80
2023-04-19T16:06:22.559Z,7.80
2023-04-19T16:08:47.760Z,7.80
2023-04-19T16:11:11.838Z,7.80
2023-04-19T16:13:36.896Z,7.70
2023-04-19T16:16:01.398Z,7.80
2023-04-19T16:18:25.353Z,7.80
2023-04-19T16:20:49.038Z,7.80
2023-04-19T16:23:14.559Z,7.70
2023-04-19T16:25:38.708Z,7.70
2023-04-19T16:28:03.584Z,7.60
2023-04-19T16:30:44.373Z,7.50
2023-04-19T16:33:08.105Z,7.60
2023-04-19T16:35:32.123Z,7.70
2023-04-19T16:38:04.638Z,7.70
2023-04-19T16:40:29.216Z,7.60
2023-04-19T16:42:58.270Z,7.70
2023-04-19T16:45:21.990Z,7.70
2023-04-19T16:47:48.129Z,7.70
2023-04-19T16:50:12.181Z,7.70
2023-04-19T16:52:36.860Z,7.70
2023-04-19T16:55:03.249Z,7.60
2023-04-19T16:57:27.031Z,7.50
2023-04-19T16:59:50.963Z,7.50
2023-04-19T17:02:14.679Z,7.40
2023-04-19T17:04:40.689Z,7.40
2023-04-19T17:07:04.655Z,7.40
2023-04-19T17:09:28.404Z,7.40
2023-04-19T17:11:51.936Z,7.40
2023-04-19T17:14:15.811Z,7.40
2023-04-19T17:16:39.526Z,7.40
2023-04-19T17:19:03.405Z,7.40
2023-04-19T17:21:28.693Z,7.40
2023-04-19T17:23:52.321Z,7.40
2023-04-19T17:26:17.001Z,7.30
2023-04-19T17:28:41.707Z,7.20
2023-04-19T17:31:05.521Z,7.20
2023-04-19T17:33:29.159Z,7.20
2023-04-19T17:35:52.939Z,7.10
2023-04-19T17:38:18.022Z,7.00
2023-04-19T17:40:41.910Z,7.00
2023-04-19T17:43:06.092Z,7.00
2023-04-19T17:45:29.807Z,6.90
2023-04-19T17:47:56.241Z,6.90
2023-04-19T17:50:20.018Z,6.90
2023-04-19T17:52:43.754Z,6.90
2023-04-19T17:55:10.354Z,7.00
2023-04-19T17:57:34.824Z,7.00
2023-04-19T17:59:58.420Z,7.10
2023-04-19T18:02:22.195Z,7.00
2023-04-19T18:04:45.958Z,7.10
2023-04-19T18:07:09.794Z,7.10
2023-04-19T18:09:33.406Z,7.10
2023-04-19T18:11:58.480Z,7.10
2023-04-19T18:14:22.064Z,7.10
2023-04-19T18:16:45.705Z,7.10
2023-04-19T18:19:09.309Z,7.10
2023-04-19T18:21:33.696Z,7.10
2023-04-19T18:23:57.264Z,7.10
2023-04-19T18:26:21.503Z,7.10
2023-04-19T18:28:46.437Z,7.10
2023-04-19T18:31:10.858Z,7.10
2023-04-19T18:33:34.787Z,7.20
2023-04-19T18:35:58.974Z,7.20
2023-04-19T18:38:22.704Z,7.20
2023-04-19T18:40:46.356Z,7.20
2023-04-19T18:43:09.983Z,7.20
2023-04-19T18:45:35.438Z,7.20
2023-04-19T18:48:01.250Z,7.20
2023-04-19T18:50:25.054Z,7.20
2023-04-19T18:52:48.907Z,7.30
2023-04-19T18:55:14.221Z,7.40
2023-04-19T18:57:38.924Z,7.30
2023-04-19T19:00:05.250Z,7.20
2023-04-19T19:02:30.811Z,7.30
2023-04-19T19:04:58.551Z,7.30
2023-04-19T19:09:56.179Z,7.20
2023-04-19T19:12:20.445Z,7.20
2023-04-19T19:14:44.987Z,7.20
2023-04-19T19:17:08.677Z,7.20
2023-04-19T19:19:33.977Z,7.10
2023-04-19T19:21:57.883Z,7.10
2023-04-19T19:24:22.032Z,7.20
2023-04-19T19:26:45.969Z,7.20
2023-04-19T19:29:09.650Z,7.30
2023-04-19T19:31:33.576Z,7.30
2023-04-19T19:34:13.779Z,7.30
2023-04-19T19:36:44.330Z,7.20
2023-04-19T19:39:08.069Z,7.20
2023-04-19T19:42:03.692Z,7.20
2023-04-19T19:44:15.753Z,7.20
2023-04-19T19:46:40.226Z,7.20
2023-04-19T19:49:05.857Z,7.20
2023-04-19T19:54:01.412Z,7.20
2023-04-19T19:56:25.048Z,7.20
2023-04-19T19:58:51.393Z,7.20
2023-04-19T20:01:16.150Z,7.20
2023-04-19T20:03:40.164Z,7.10
2023-04-19T20:06:35.686Z,7.10
2023-04-19T20:08:50.464Z,7.20
2023-04-19T20:11:16.706Z,7.10
2023-04-19T20:13:40.705Z,7.10
2023-04-19T20:16:06.989Z,7.10
2023-04-19T20:18:31.483Z,7.10
2023-04-19T20:20:55.283Z,7.10
2023-04-19T20:23:22.401Z,7.20
2023-04-19T20:25:47.055Z,7.20
2023-04-19T20:28:16.161Z,7.20
2023-04-19T20:30:39.927Z,7.10
2023-04-19T20:33:03.886Z,7.10
2023-04-19T20:35:27.586Z,7.10
2023-04-19T20:37:52.058Z,7.10
2023-04-19T20:40:16.830Z,7.10
2023-04-19T20:42:40.889Z,7.10
2023-04-19T20:45:06.998Z,7.10
2023-04-19T20:47:32.112Z,7.10
2023-04-19T20:49:55.948Z,7.20
2023-04-19T20:52:19.661Z,7.10
2023-04-19T20:54:43.350Z,7.20
2023-04-19T20:57:07.717Z,7.10
2023-04-19T20:59:33.685Z,7.00
2023-04-19T21:02:00.176Z,7.00
2023-04-19T21:04:24.108Z,7.00
2023-04-19T21:06:48.418Z,7.10
2023-04-19T21:09:12.105Z,7.10
2023-04-19T21:11:35.774Z,7.10
2023-04-19T21:13:59.441Z,7.00
2023-04-19T21:16:23.243Z,7.10
2023-04-19T21:18:48.306Z,7.10
2023-04-19T21:21:12.166Z,7.00
2023-04-19T21:23:35.927Z,7.10
2023-04-19T21:26:02.652Z,7.00
2023-04-19T21:28:29.271Z,7.00
2023-04-19T21:30:53.730Z,7.10
2023-04-19T21:33:18.397Z,7.00
2023-04-19T21:35:47.710Z,7.00
2023-04-19T21:38:17.209Z,7.10
2023-04-19T21:40:46.488Z,7.00
2023-04-19T21:43:17.932Z,7.10
2023-04-19T21:45:49.566Z,7.00
2023-04-19T21:48:14.176Z,7.00
2023-04-19T21:50:46.368Z,7.10
2023-04-19T21:53:11.173Z,7.00
2023-04-19T21:55:36.192Z,7.00
2023-04-19T21:58:00.150Z,7.00
2023-04-19T22:00:25.513Z,7.00
2023-04-19T22:02:52.485Z,6.90
2023-04-19T22:05:16.743Z,6.90
2023-04-19T22:07:42.038Z,7.00
2023-04-19T22:10:09.124Z,7.00
2023-04-19T22:12:33.992Z,7.00
2023-04-19T22:14:58.817Z,6.90
2023-04-19T22:17:23.277Z,6.90
2023-04-19T22:19:47.747Z,7.00
2023-04-19T22:22:11.407Z,7.00
2023-04-19T22:24:43.959Z,7.00
2023-04-19T22:27:17.663Z,7.00
2023-04-19T22:29:41.522Z,6.90
2023-04-19T22:32:09.932Z,6.90
2023-04-19T22:34:33.753Z,6.90
2023-04-19T22:36:57.732Z,6.90
2023-04-19T22:39:21.475Z,6.90
2023-04-19T22:41:47.100Z,6.90
2023-04-19T22:44:10.798Z,7.00
2023-04-19T22:46:34.764Z,7.00
2023-04-19T22:48:58.421Z,7.00
2023-04-19T22:51:22.454Z,7.00
2023-04-19T22:53:46.173Z,7.10
2023-04-19T22:56:09.764Z,7.10
2023-04-19T22:58:35.131Z,7.10
2023-04-19T23:00:58.880Z,7.10
2023-04-19T23:03:22.743Z,7.10
2023-04-19T23:05:47.324Z,7.10
2023-04-19T23:08:10.960Z,7.00
2023-04-19T23:10:37.948Z,7.00
2023-04-19T23:13:01.719Z,7.00
2023-04-19T23:15:29.863Z,7.00
2023-04-19T23:17:55.007Z,7.00
2023-04-19T23:20:18.972Z,7.00
2023-04-19T23:22:43.420Z,7.00
2023-04-19T23:25:08.952Z,7.00
2023-04-19T23:27:33.958Z,7.10
2023-04-19T23:29:57.918Z,7.00
2023-04-19T23:32:22.954Z,7.00
2023-04-19T23:34:46.603Z,7.00
2023-04-19T23:37:10.247Z,7.00
2023-04-19T23:39:34.163Z,7.10
2023-04-19T23:41:58.039Z,7.00
2023-04-19T23:44:21.960Z,7.00
2023-04-19T23:46:45.751Z,7.00
2023-04-19T23:49:11.009Z,7.10
2023-04-19T23:51:34.679Z,7.00
2023-04-19T23:53:58.256Z,7.10
2023-04-19T23:56:21.835Z,7.10
2023-04-19T23:58:45.715Z,7.10
